Mafeking, Canada
Current Conditions -  °F | °C
As of 4:00 PM on Wednesday 28 Jan 2015 (Local Time) from CYQD Reporting Station
Light Snow Light Snow  
Wind Chill: -12°   Ceiling: 1500
Heat Index:   Visibility: 14mi
Dew Point: -4°   Wind: 8mph
Humidity: 78%   Direction: 350°N
Pressure: 30.18"   Gusts: NA
Location:  52.68°N, 101.1°W
Report Text: CYQD 282200Z 35007KT 14SM -SN FEW012 OVC015 M17/M20 A3018 RMK SF1SC8 SF TR PRESRR SLP248
Loading
Personal Weather Stations






























Interactive Weather Map New forecast layout! Learn more

10-Day Weather Forecast

Advertisements
Track Severe Weather on mobile